sensor_id;sensor_type;location;lat;lon;timestamp;temperature;humidity
74811;DHT22;63340;48.404;-4.506;2022-12-10T00:01:06;5.98;60.51
74811;DHT22;63340;48.404;-4.506;2022-12-10T00:03:33;5.99;60.49
74811;DHT22;63340;48.404;-4.506;2022-12-10T00:06:00;5.98;60.23
74811;DHT22;63340;48.404;-4.506;2022-12-10T00:08:26;5.93;60.21
74811;DHT22;63340;48.404;-4.506;2022-12-10T00:10:51;5.93;60.30
74811;DHT22;63340;48.404;-4.506;2022-12-10T00:13:16;5.96;60.45
74811;DHT22;63340;48.404;-4.506;2022-12-10T00:15:42;6.03;60.61
74811;DHT22;63340;48.404;-4.506;2022-12-10T00:18:07;6.03;60.42
74811;DHT22;63340;48.404;-4.506;2022-12-10T00:20:33;6.02;60.50
74811;DHT22;63340;48.404;-4.506;2022-12-10T00:22:58;6.07;60.18
74811;DHT22;63340;48.404;-4.506;2022-12-10T00:25:23;6.06;60.17
74811;DHT22;63340;48.404;-4.506;2022-12-10T00:27:49;6.07;59.99
74811;DHT22;63340;48.404;-4.506;2022-12-10T00:30:14;6.06;60.08
74811;DHT22;63340;48.404;-4.506;2022-12-10T00:32:40;5.98;59.59
74811;DHT22;63340;48.404;-4.506;2022-12-10T00:35:05;5.88;60.13
74811;DHT22;63340;48.404;-4.506;2022-12-10T00:37:32;5.88;60.45
74811;DHT22;63340;48.404;-4.506;2022-12-10T00:39:58;5.93;60.12
74811;DHT22;63340;48.404;-4.506;2022-12-10T00:42:23;5.96;59.32
74811;DHT22;63340;48.404;-4.506;2022-12-10T00:44:49;5.85;59.96
74811;DHT22;63340;48.404;-4.506;2022-12-10T00:47:14;5.79;60.50
74811;DHT22;63340;48.404;-4.506;2022-12-10T00:49:39;5.75;60.56
74811;DHT22;63340;48.404;-4.506;2022-12-10T00:52:05;5.75;60.14
74811;DHT22;63340;48.404;-4.506;2022-12-10T00:54:30;5.76;60.16
74811;DHT22;63340;48.404;-4.506;2022-12-10T00:56:56;5.79;60.05
74811;DHT22;63340;48.404;-4.506;2022-12-10T00:59:21;5.81;59.79
74811;DHT22;63340;48.404;-4.506;2022-12-10T01:01:46;5.73;59.97
74811;DHT22;63340;48.404;-4.506;2022-12-10T01:04:15;5.71;59.73
74811;DHT22;63340;48.404;-4.506;2022-12-10T01:06:49;5.72;60.00
74811;DHT22;63340;48.404;-4.506;2022-12-10T01:09:20;5.75;59.97
74811;DHT22;63340;48.404;-4.506;2022-12-10T01:11:47;5.75;60.10
74811;DHT22;63340;48.404;-4.506;2022-12-10T01:14:19;5.76;59.97
74811;DHT22;63340;48.404;-4.506;2022-12-10T01:16:45;5.78;59.80
74811;DHT22;63340;48.404;-4.506;2022-12-10T01:19:11;5.78;60.05
74811;DHT22;63340;48.404;-4.506;2022-12-10T01:21:37;5.76;59.87
74811;DHT22;63340;48.404;-4.506;2022-12-10T01:24:03;5.75;60.30
74811;DHT22;63340;48.404;-4.506;2022-12-10T01:26:32;5.76;59.84
74811;DHT22;63340;48.404;-4.506;2022-12-10T01:28:58;5.75;59.71
74811;DHT22;63340;48.404;-4.506;2022-12-10T01:31:29;5.75;59.33
74811;DHT22;63340;48.404;-4.506;2022-12-10T01:33:55;5.71;59.40
74811;DHT22;63340;48.404;-4.506;2022-12-10T01:36:25;5.71;59.42
74811;DHT22;63340;48.404;-4.506;2022-12-10T01:38:51;5.69;59.54
74811;DHT22;63340;48.404;-4.506;2022-12-10T01:41:23;5.68;59.63
74811;DHT22;63340;48.404;-4.506;2022-12-10T01:43:58;5.64;59.76
74811;DHT22;63340;48.404;-4.506;2022-12-10T01:46:31;5.68;59.69
74811;DHT22;63340;48.404;-4.506;2022-12-10T01:48:58;5.68;59.68
74811;DHT22;63340;48.404;-4.506;2022-12-10T01:51:27;5.65;59.30
74811;DHT22;63340;48.404;-4.506;2022-12-10T01:53:53;5.61;59.44
74811;DHT22;63340;48.404;-4.506;2022-12-10T01:56:20;5.62;59.32
74811;DHT22;63340;48.404;-4.506;2022-12-10T01:58:47;5.54;59.76
74811;DHT22;63340;48.404;-4.506;2022-12-10T02:01:26;5.54;59.66
74811;DHT22;63340;48.404;-4.506;2022-12-10T02:04:22;5.58;59.06
74811;DHT22;63340;48.404;-4.506;2022-12-10T02:06:59;5.56;58.98
74811;DHT22;63340;48.404;-4.506;2022-12-10T02:09:42;5.47;58.86
74811;DHT22;63340;48.404;-4.506;2022-12-10T02:12:21;5.34;59.39
74811;DHT22;63340;48.404;-4.506;2022-12-10T02:17:20;5.14;59.95
74811;DHT22;63340;48.404;-4.506;2022-12-10T02:22:17;5.27;59.81
74811;DHT22;63340;48.404;-4.506;2022-12-10T02:24:45;5.34;59.46
74811;DHT22;63340;48.404;-4.506;2022-12-10T02:27:28;5.31;59.37
74811;DHT22;63340;48.404;-4.506;2022-12-10T02:29:58;5.24;59.66
74811;DHT22;63340;48.404;-4.506;2022-12-10T02:32:31;5.22;60.10
74811;DHT22;63340;48.404;-4.506;2022-12-10T02:35:00;5.20;59.53
74811;DHT22;63340;48.404;-4.506;2022-12-10T02:37:35;5.23;59.19
74811;DHT22;63340;48.404;-4.506;2022-12-10T02:40:08;5.16;59.31
74811;DHT22;63340;48.404;-4.506;2022-12-10T02:42:38;5.13;59.14
74811;DHT22;63340;48.404;-4.506;2022-12-10T02:45:04;5.09;59.35
74811;DHT22;63340;48.404;-4.506;2022-12-10T02:47:31;5.10;59.24
74811;DHT22;63340;48.404;-4.506;2022-12-10T02:49:58;5.13;59.14
74811;DHT22;63340;48.404;-4.506;2022-12-10T02:52:24;5.13;59.35
74811;DHT22;63340;48.404;-4.506;2022-12-10T02:54:51;5.14;59.31
74811;DHT22;63340;48.404;-4.506;2022-12-10T02:57:30;5.09;59.36
74811;DHT22;63340;48.404;-4.506;2022-12-10T03:10:55;4.95;59.57
74811;DHT22;63340;48.404;-4.506;2022-12-10T03:13:31;4.96;59.30
74811;DHT22;63340;48.404;-4.506;2022-12-10T03:15:59;4.92;59.15
74811;DHT22;63340;48.404;-4.506;2022-12-10T03:18:25;4.92;59.22
74811;DHT22;63340;48.404;-4.506;2022-12-10T03:20:54;4.95;58.92
74811;DHT22;63340;48.404;-4.506;2022-12-10T03:23:28;4.95;58.93
74811;DHT22;63340;48.404;-4.506;2022-12-10T03:25:55;4.97;58.90
74811;DHT22;63340;48.404;-4.506;2022-12-10T03:28:21;4.99;58.76
74811;DHT22;63340;48.404;-4.506;2022-12-10T03:30:49;5.01;58.73
74811;DHT22;63340;48.404;-4.506;2022-12-10T03:33:15;4.99;58.57
74811;DHT22;63340;48.404;-4.506;2022-12-10T03:35:41;5.00;58.76
74811;DHT22;63340;48.404;-4.506;2022-12-10T03:38:08;4.99;58.65
74811;DHT22;63340;48.404;-4.506;2022-12-10T03:40:34;4.99;58.45
74811;DHT22;63340;48.404;-4.506;2022-12-10T03:43:00;5.03;58.66
74811;DHT22;63340;48.404;-4.506;2022-12-10T03:45:26;5.00;58.50
74811;DHT22;63340;48.404;-4.506;2022-12-10T03:47:52;4.97;58.26
74811;DHT22;63340;48.404;-4.506;2022-12-10T03:50:20;4.83;58.37
74811;DHT22;63340;48.404;-4.506;2022-12-10T03:52:46;4.77;58.89
74811;DHT22;63340;48.404;-4.506;2022-12-10T03:55:12;4.76;59.05
74811;DHT22;63340;48.404;-4.506;2022-12-10T03:57:38;4.79;59.03
74811;DHT22;63340;48.404;-4.506;2022-12-10T04:00:05;4.83;58.97
74811;DHT22;63340;48.404;-4.506;2022-12-10T04:02:31;4.85;58.81
74811;DHT22;63340;48.404;-4.506;2022-12-10T04:04:56;4.83;58.72
74811;DHT22;63340;48.404;-4.506;2022-12-10T04:07:22;4.82;58.54
74811;DHT22;63340;48.404;-4.506;2022-12-10T04:09:48;4.85;58.65
74811;DHT22;63340;48.404;-4.506;2022-12-10T04:12:14;4.89;58.60
74811;DHT22;63340;48.404;-4.506;2022-12-10T04:14:40;4.92;58.18
74811;DHT22;63340;48.404;-4.506;2022-12-10T04:17:26;4.92;57.66
74811;DHT22;63340;48.404;-4.506;2022-12-10T04:19:51;4.86;58.36
74811;DHT22;63340;48.404;-4.506;2022-12-10T04:22:17;4.83;58.60
74811;DHT22;63340;48.404;-4.506;2022-12-10T04:25:01;4.82;58.68
74811;DHT22;63340;48.404;-4.506;2022-12-10T04:27:44;4.82;58.63
74811;DHT22;63340;48.404;-4.506;2022-12-10T04:30:11;4.83;58.72
74811;DHT22;63340;48.404;-4.506;2022-12-10T04:32:37;4.86;58.76
74811;DHT22;63340;48.404;-4.506;2022-12-10T04:35:03;4.87;58.70
74811;DHT22;63340;48.404;-4.506;2022-12-10T04:37:29;4.77;58.31
74811;DHT22;63340;48.404;-4.506;2022-12-10T04:39:54;4.69;58.48
74811;DHT22;63340;48.404;-4.506;2022-12-10T04:42:21;4.64;58.95
74811;DHT22;63340;48.404;-4.506;2022-12-10T04:44:46;4.64;58.74
74811;DHT22;63340;48.404;-4.506;2022-12-10T04:47:12;4.59;59.02
74811;DHT22;63340;48.404;-4.506;2022-12-10T04:49:38;4.59;59.00
74811;DHT22;63340;48.404;-4.506;2022-12-10T04:52:05;4.68;58.85
74811;DHT22;63340;48.404;-4.506;2022-12-10T04:54:31;4.72;58.71
74811;DHT22;63340;48.404;-4.506;2022-12-10T04:56:57;4.72;58.85
74811;DHT22;63340;48.404;-4.506;2022-12-10T04:59:22;4.77;58.48
74811;DHT22;63340;48.404;-4.506;2022-12-10T05:01:48;4.82;58.43
74811;DHT22;63340;48.404;-4.506;2022-12-10T05:04:15;4.82;58.46
74811;DHT22;63340;48.404;-4.506;2022-12-10T05:06:41;4.80;58.64
74811;DHT22;63340;48.404;-4.506;2022-12-10T05:09:07;4.80;58.59
74811;DHT22;63340;48.404;-4.506;2022-12-10T05:11:33;4.73;58.23
74811;DHT22;63340;48.404;-4.506;2022-12-10T05:14:00;4.61;58.57
74811;DHT22;63340;48.404;-4.506;2022-12-10T05:16:28;4.55;58.91
74811;DHT22;63340;48.404;-4.506;2022-12-10T05:18:55;4.55;58.77
74811;DHT22;63340;48.404;-4.506;2022-12-10T05:21:22;4.61;58.86
74811;DHT22;63340;48.404;-4.506;2022-12-10T05:23:50;4.65;58.93
74811;DHT22;63340;48.404;-4.506;2022-12-10T05:26:22;4.69;58.70
74811;DHT22;63340;48.404;-4.506;2022-12-10T05:28:51;4.68;58.92
74811;DHT22;63340;48.404;-4.506;2022-12-10T05:31:20;4.58;58.70
74811;DHT22;63340;48.404;-4.506;2022-12-10T05:33:46;4.56;59.22
74811;DHT22;63340;48.404;-4.506;2022-12-10T05:36:13;4.59;58.79
74811;DHT22;63340;48.404;-4.506;2022-12-10T05:38:40;4.59;58.83
74811;DHT22;63340;48.404;-4.506;2022-12-10T05:41:12;4.62;59.08
74811;DHT22;63340;48.404;-4.506;2022-12-10T05:43:38;4.71;59.00
74811;DHT22;63340;48.404;-4.506;2022-12-10T05:46:07;4.77;58.54
74811;DHT22;63340;48.404;-4.506;2022-12-10T05:48:34;4.80;58.05
74811;DHT22;63340;48.404;-4.506;2022-12-10T05:51:08;4.71;58.05
74811;DHT22;63340;48.404;-4.506;2022-12-10T05:53:34;4.61;58.32
74811;DHT22;63340;48.404;-4.506;2022-12-10T05:56:06;4.59;59.10
74811;DHT22;63340;48.404;-4.506;2022-12-10T05:58:33;4.64;59.22
74811;DHT22;63340;48.404;-4.506;2022-12-10T06:00:59;4.69;58.78
74811;DHT22;63340;48.404;-4.506;2022-12-10T06:03:27;4.73;58.49
74811;DHT22;63340;48.404;-4.506;2022-12-10T06:05:53;4.71;58.29
74811;DHT22;63340;48.404;-4.506;2022-12-10T06:08:19;4.71;58.55
74811;DHT22;63340;48.404;-4.506;2022-12-10T06:10:44;4.72;58.54
74811;DHT22;63340;48.404;-4.506;2022-12-10T06:13:10;4.77;58.65
74811;DHT22;63340;48.404;-4.506;2022-12-10T06:15:40;4.77;58.57
74811;DHT22;63340;48.404;-4.506;2022-12-10T06:18:06;4.77;58.84
74811;DHT22;63340;48.404;-4.506;2022-12-10T06:20:32;4.80;58.48
74811;DHT22;63340;48.404;-4.506;2022-12-10T06:22:57;4.82;58.41
74811;DHT22;63340;48.404;-4.506;2022-12-10T06:25:23;4.72;58.38
74811;DHT22;63340;48.404;-4.506;2022-12-10T06:27:48;4.64;58.67
74811;DHT22;63340;48.404;-4.506;2022-12-10T06:30:13;4.65;58.54
74811;DHT22;63340;48.404;-4.506;2022-12-10T06:32:39;4.66;58.47
74811;DHT22;63340;48.404;-4.506;2022-12-10T06:35:05;4.62;58.66
74811;DHT22;63340;48.404;-4.506;2022-12-10T06:37:30;4.56;58.57
74811;DHT22;63340;48.404;-4.506;2022-12-10T06:39:56;4.54;58.61
74811;DHT22;63340;48.404;-4.506;2022-12-10T06:42:21;4.54;58.90
74811;DHT22;63340;48.404;-4.506;2022-12-10T06:44:47;4.58;58.86
74811;DHT22;63340;48.404;-4.506;2022-12-10T06:47:13;4.58;58.67
74811;DHT22;63340;48.404;-4.506;2022-12-10T06:49:39;4.59;58.50
74811;DHT22;63340;48.404;-4.506;2022-12-10T06:52:05;4.59;58.39
74811;DHT22;63340;48.404;-4.506;2022-12-10T06:54:31;4.65;58.42
74811;DHT22;63340;48.404;-4.506;2022-12-10T06:56:57;4.65;58.01
74811;DHT22;63340;48.404;-4.506;2022-12-10T06:59:23;4.54;58.34
74811;DHT22;63340;48.404;-4.506;2022-12-10T07:01:48;4.48;58.29
74811;DHT22;63340;48.404;-4.506;2022-12-10T07:04:14;4.52;58.26
74811;DHT22;63340;48.404;-4.506;2022-12-10T07:06:40;4.56;58.19
74811;DHT22;63340;48.404;-4.506;2022-12-10T07:09:05;4.58;58.19
74811;DHT22;63340;48.404;-4.506;2022-12-10T07:11:31;4.59;58.18
74811;DHT22;63340;48.404;-4.506;2022-12-10T07:13:59;4.68;58.50
74811;DHT22;63340;48.404;-4.506;2022-12-10T07:16:28;4.62;58.53
74811;DHT22;63340;48.404;-4.506;2022-12-10T07:18:55;4.48;57.94
74811;DHT22;63340;48.404;-4.506;2022-12-10T07:21:32;4.37;58.83
74811;DHT22;63340;48.404;-4.506;2022-12-10T07:24:06;4.36;59.00
74811;DHT22;63340;48.404;-4.506;2022-12-10T07:26:35;4.41;59.07
74811;DHT22;63340;48.404;-4.506;2022-12-10T07:29:02;4.45;58.74
74811;DHT22;63340;48.404;-4.506;2022-12-10T07:31:28;4.44;58.81
74811;DHT22;63340;48.404;-4.506;2022-12-10T07:33:54;4.42;58.57
74811;DHT22;63340;48.404;-4.506;2022-12-10T07:36:22;4.49;58.47
74811;DHT22;63340;48.404;-4.506;2022-12-10T07:38:48;4.45;58.75
74811;DHT22;63340;48.404;-4.506;2022-12-10T07:41:14;4.47;58.74
74811;DHT22;63340;48.404;-4.506;2022-12-10T07:43:40;4.51;58.59
74811;DHT22;63340;48.404;-4.506;2022-12-10T07:46:08;4.54;58.33
74811;DHT22;63340;48.404;-4.506;2022-12-10T07:48:35;4.52;58.80
74811;DHT22;63340;48.404;-4.506;2022-12-10T07:51:01;4.54;58.73
74811;DHT22;63340;48.404;-4.506;2022-12-10T07:53:27;4.62;58.60
74811;DHT22;63340;48.404;-4.506;2022-12-10T07:55:52;4.65;59.03
74811;DHT22;63340;48.404;-4.506;2022-12-10T07:58:17;4.71;59.16
74811;DHT22;63340;48.404;-4.506;2022-12-10T08:00:43;4.68;59.01
74811;DHT22;63340;48.404;-4.506;2022-12-10T08:03:08;4.73;58.94
74811;DHT22;63340;48.404;-4.506;2022-12-10T08:05:34;4.77;58.69
74811;DHT22;63340;48.404;-4.506;2022-12-10T08:07:59;4.71;58.64
74811;DHT22;63340;48.404;-4.506;2022-12-10T08:10:24;4.58;58.95
74811;DHT22;63340;48.404;-4.506;2022-12-10T08:12:50;4.55;58.81
74811;DHT22;63340;48.404;-4.506;2022-12-10T08:15:15;4.58;59.18
74811;DHT22;63340;48.404;-4.506;2022-12-10T08:17:41;4.59;58.79
74811;DHT22;63340;48.404;-4.506;2022-12-10T08:20:07;4.56;58.96
74811;DHT22;63340;48.404;-4.506;2022-12-10T08:22:33;4.62;59.85
74811;DHT22;63340;48.404;-4.506;2022-12-10T08:24:59;4.71;59.83
74811;DHT22;63340;48.404;-4.506;2022-12-10T08:27:25;4.79;59.90
74811;DHT22;63340;48.404;-4.506;2022-12-10T08:29:50;4.87;59.77
74811;DHT22;63340;48.404;-4.506;2022-12-10T08:32:16;4.93;59.01
74811;DHT22;63340;48.404;-4.506;2022-12-10T08:34:41;4.82;58.73
74811;DHT22;63340;48.404;-4.506;2022-12-10T08:37:06;4.73;59.10
74811;DHT22;63340;48.404;-4.506;2022-12-10T08:39:32;4.69;59.16
74811;DHT22;63340;48.404;-4.506;2022-12-10T08:41:58;4.68;59.14
74811;DHT22;63340;48.404;-4.506;2022-12-10T08:44:24;4.71;59.54
74811;DHT22;63340;48.404;-4.506;2022-12-10T08:46:49;4.75;59.32
74811;DHT22;63340;48.404;-4.506;2022-12-10T08:49:14;4.86;59.57
74811;DHT22;63340;48.404;-4.506;2022-12-10T08:51:40;4.96;61.09
74811;DHT22;63340;48.404;-4.506;2022-12-10T08:54:05;5.17;61.86
74811;DHT22;63340;48.404;-4.506;2022-12-10T08:56:30;5.38;62.04
74811;DHT22;63340;48.404;-4.506;2022-12-10T08:58:56;5.62;62.42
74811;DHT22;63340;48.404;-4.506;2022-12-10T09:01:22;5.85;61.62
74811;DHT22;63340;48.404;-4.506;2022-12-10T09:03:47;6.00;61.97
74811;DHT22;63340;48.404;-4.506;2022-12-10T09:06:15;6.13;61.60
74811;DHT22;63340;48.404;-4.506;2022-12-10T09:08:41;6.20;61.09
74811;DHT22;63340;48.404;-4.506;2022-12-10T09:11:09;6.24;61.13
74811;DHT22;63340;48.404;-4.506;2022-12-10T09:13:34;6.33;61.01
74811;DHT22;63340;48.404;-4.506;2022-12-10T09:16:00;6.44;61.62
74811;DHT22;63340;48.404;-4.506;2022-12-10T09:18:25;6.55;61.55
74811;DHT22;63340;48.404;-4.506;2022-12-10T09:20:51;6.74;61.88
74811;DHT22;63340;48.404;-4.506;2022-12-10T09:23:16;7.02;61.09
74811;DHT22;63340;48.404;-4.506;2022-12-10T09:25:42;7.24;60.84
74811;DHT22;63340;48.404;-4.506;2022-12-10T09:28:07;7.43;60.56
74811;DHT22;63340;48.404;-4.506;2022-12-10T09:30:32;7.58;60.59
74811;DHT22;63340;48.404;-4.506;2022-12-10T09:32:58;7.64;60.36
74811;DHT22;63340;48.404;-4.506;2022-12-10T09:35:23;7.70;60.73
74811;DHT22;63340;48.404;-4.506;2022-12-10T09:37:49;7.81;60.25
74811;DHT22;63340;48.404;-4.506;2022-12-10T09:40:16;7.84;60.40
74811;DHT22;63340;48.404;-4.506;2022-12-10T09:51:12;8.05;60.26
74811;DHT22;63340;48.404;-4.506;2022-12-10T09:53:43;8.12;60.41
74811;DHT22;63340;48.404;-4.506;2022-12-10T09:56:22;8.23;60.42
74811;DHT22;63340;48.404;-4.506;2022-12-10T09:58:48;8.32;60.39
74811;DHT22;63340;48.404;-4.506;2022-12-10T10:01:16;8.34;60.02
74811;DHT22;63340;48.404;-4.506;2022-12-10T10:03:42;8.37;59.23
74811;DHT22;63340;48.404;-4.506;2022-12-10T10:06:12;8.36;59.18
74811;DHT22;63340;48.404;-4.506;2022-12-10T10:08:41;8.34;58.76
74811;DHT22;63340;48.404;-4.506;2022-12-10T10:11:20;8.36;58.80
74811;DHT22;63340;48.404;-4.506;2022-12-10T10:13:58;8.36;58.44
74811;DHT22;63340;48.404;-4.506;2022-12-10T10:19:00;8.37;59.13
74811;DHT22;63340;48.404;-4.506;2022-12-10T10:21:34;8.49;58.90
74811;DHT22;63340;48.404;-4.506;2022-12-10T10:24:01;8.56;58.88
74811;DHT22;63340;48.404;-4.506;2022-12-10T10:26:27;8.56;58.43
74811;DHT22;63340;48.404;-4.506;2022-12-10T10:28:59;8.52;58.52
74811;DHT22;63340;48.404;-4.506;2022-12-10T10:31:28;8.53;58.86
74811;DHT22;63340;48.404;-4.506;2022-12-10T10:33:57;8.54;58.59
74811;DHT22;63340;48.404;-4.506;2022-12-10T10:39:08;8.53;58.31
74811;DHT22;63340;48.404;-4.506;2022-12-10T10:41:38;8.56;58.03
74811;DHT22;63340;48.404;-4.506;2022-12-10T10:44:13;8.56;58.77
74811;DHT22;63340;48.404;-4.506;2022-12-10T10:46:41;8.60;59.21
74811;DHT22;63340;48.404;-4.506;2022-12-10T10:49:29;8.65;59.08
74811;DHT22;63340;48.404;-4.506;2022-12-10T10:52:05;8.74;59.25
74811;DHT22;63340;48.404;-4.506;2022-12-10T10:54:40;8.80;58.72
74811;DHT22;63340;48.404;-4.506;2022-12-10T10:57:25;8.87;58.93
74811;DHT22;63340;48.404;-4.506;2022-12-10T10:59:54;8.91;58.66
74811;DHT22;63340;48.404;-4.506;2022-12-10T11:02:29;8.95;58.08
74811;DHT22;63340;48.404;-4.506;2022-12-10T11:04:56;8.98;58.61
74811;DHT22;63340;48.404;-4.506;2022-12-10T11:07:38;9.02;58.55
74811;DHT22;63340;48.404;-4.506;2022-12-10T11:12:41;9.05;58.46
74811;DHT22;63340;48.404;-4.506;2022-12-10T11:17:51;9.04;57.99
74811;DHT22;63340;48.404;-4.506;2022-12-10T11:20:25;9.07;58.82
74811;DHT22;63340;48.404;-4.506;2022-12-10T11:22:53;9.14;58.29
74811;DHT22;63340;48.404;-4.506;2022-12-10T11:25:43;9.19;58.18
74811;DHT22;63340;48.404;-4.506;2022-12-10T11:37:02;9.51;57.70
74811;DHT22;63340;48.404;-4.506;2022-12-10T11:45:26;9.67;56.34
74811;DHT22;63340;48.404;-4.506;2022-12-10T11:48:10;9.69;56.64
74811;DHT22;63340;48.404;-4.506;2022-12-10T11:50:46;9.77;56.44
74811;DHT22;63340;48.404;-4.506;2022-12-10T11:56:26;9.94;57.04
74811;DHT22;63340;48.404;-4.506;2022-12-10T12:01:38;10.09;55.71
74811;DHT22;63340;48.404;-4.506;2022-12-10T12:18:13;9.98;54.55
74811;DHT22;63340;48.404;-4.506;2022-12-10T12:21:08;9.90;55.46
74811;DHT22;63340;48.404;-4.506;2022-12-10T12:23:58;9.84;55.40
74811;DHT22;63340;48.404;-4.506;2022-12-10T12:26:44;9.73;55.33
74811;DHT22;63340;48.404;-4.506;2022-12-10T12:29:38;9.67;55.31
74811;DHT22;63340;48.404;-4.506;2022-12-10T12:32:08;9.66;55.48
74811;DHT22;63340;48.404;-4.506;2022-12-10T12:37:20;9.54;55.10
74811;DHT22;63340;48.404;-4.506;2022-12-10T12:42:48;9.33;55.90
74811;DHT22;63340;48.404;-4.506;2022-12-10T12:45:20;9.35;56.02
74811;DHT22;63340;48.404;-4.506;2022-12-10T12:50:49;9.39;55.64
74811;DHT22;63340;48.404;-4.506;2022-12-10T12:53:18;9.46;55.75
74811;DHT22;63340;48.404;-4.506;2022-12-10T12:58:40;9.57;55.73
74811;DHT22;63340;48.404;-4.506;2022-12-10T13:03:43;9.67;55.27
74811;DHT22;63340;48.404;-4.506;2022-12-10T13:06:25;9.67;55.54
74811;DHT22;63340;48.404;-4.506;2022-12-10T13:11:46;9.73;55.54
74811;DHT22;63340;48.404;-4.506;2022-12-10T13:17:34;9.93;55.54
74811;DHT22;63340;48.404;-4.506;2022-12-10T13:25:38;10.19;54.72
74811;DHT22;63340;48.404;-4.506;2022-12-10T13:28:49;10.21;54.53
74811;DHT22;63340;48.404;-4.506;2022-12-10T13:34:10;10.46;55.72
74811;DHT22;63340;48.404;-4.506;2022-12-10T13:44:49;10.67;52.67
74811;DHT22;63340;48.404;-4.506;2022-12-10T13:49:59;10.77;52.03
74811;DHT22;63340;48.404;-4.506;2022-12-10T13:52:32;10.81;52.74
74811;DHT22;63340;48.404;-4.506;2022-12-10T13:55:25;10.85;52.49
74811;DHT22;63340;48.404;-4.506;2022-12-10T14:00:37;10.90;54.13
74811;DHT22;63340;48.404;-4.506;2022-12-10T14:04:01;10.79;54.22
74811;DHT22;63340;48.404;-4.506;2022-12-10T14:06:24;10.57;54.14
74811;DHT22;63340;48.404;-4.506;2022-12-10T14:09:06;10.49;55.62
74811;DHT22;63340;48.404;-4.506;2022-12-10T14:11:39;10.45;56.37
74811;DHT22;63340;48.404;-4.506;2022-12-10T14:14:11;10.45;56.83
74811;DHT22;63340;48.404;-4.506;2022-12-10T14:16:39;10.45;57.07
74811;DHT22;63340;48.404;-4.506;2022-12-10T14:19:12;10.36;57.63
74811;DHT22;63340;48.404;-4.506;2022-12-10T14:21:40;10.31;58.29
74811;DHT22;63340;48.404;-4.506;2022-12-10T14:24:25;10.28;58.03
74811;DHT22;63340;48.404;-4.506;2022-12-10T14:26:58;10.21;58.72
74811;DHT22;63340;48.404;-4.506;2022-12-10T14:29:23;10.09;59.81
74811;DHT22;63340;48.404;-4.506;2022-12-10T14:31:49;10.01;59.59
74811;DHT22;63340;48.404;-4.506;2022-12-10T14:34:18;9.99;59.52
74811;DHT22;63340;48.404;-4.506;2022-12-10T14:36:52;9.91;60.15
74811;DHT22;63340;48.404;-4.506;2022-12-10T14:39:21;9.88;59.80
74811;DHT22;63340;48.404;-4.506;2022-12-10T14:41:52;9.90;60.76
74811;DHT22;63340;48.404;-4.506;2022-12-10T14:44:18;9.83;60.41
74811;DHT22;63340;48.404;-4.506;2022-12-10T14:46:47;9.80;60.35
74811;DHT22;63340;48.404;-4.506;2022-12-10T14:49:24;9.81;60.43
74811;DHT22;63340;48.404;-4.506;2022-12-10T14:51:50;9.76;60.98
74811;DHT22;63340;48.404;-4.506;2022-12-10T14:54:37;9.74;61.07
74811;DHT22;63340;48.404;-4.506;2022-12-10T14:57:05;9.67;61.17
74811;DHT22;63340;48.404;-4.506;2022-12-10T14:59:43;9.67;61.25
74811;DHT22;63340;48.404;-4.506;2022-12-10T15:02:27;9.70;61.10
74811;DHT22;63340;48.404;-4.506;2022-12-10T15:04:53;9.71;61.04
74811;DHT22;63340;48.404;-4.506;2022-12-10T15:07:22;9.77;61.15
74811;DHT22;63340;48.404;-4.506;2022-12-10T15:09:50;9.74;61.16
74811;DHT22;63340;48.404;-4.506;2022-12-10T15:12:29;9.69;61.35
74811;DHT22;63340;48.404;-4.506;2022-12-10T15:14:59;9.67;61.30
74811;DHT22;63340;48.404;-4.506;2022-12-10T15:17:42;9.67;61.38
74811;DHT22;63340;48.404;-4.506;2022-12-10T15:20:26;9.67;61.79
74811;DHT22;63340;48.404;-4.506;2022-12-10T15:22:53;9.66;62.04
74811;DHT22;63340;48.404;-4.506;2022-12-10T15:25:28;9.67;62.00
74811;DHT22;63340;48.404;-4.506;2022-12-10T15:27:56;9.53;60.99
74811;DHT22;63340;48.404;-4.506;2022-12-10T15:30:34;9.39;60.60
74811;DHT22;63340;48.404;-4.506;2022-12-10T15:33:00;9.28;61.88
74811;DHT22;63340;48.404;-4.506;2022-12-10T15:35:25;9.22;61.43
74811;DHT22;63340;48.404;-4.506;2022-12-10T15:37:52;9.15;62.43
74811;DHT22;63340;48.404;-4.506;2022-12-10T15:40:27;9.14;61.73
74811;DHT22;63340;48.404;-4.506;2022-12-10T15:43:10;9.14;62.62
74811;DHT22;63340;48.404;-4.506;2022-12-10T15:45:39;9.18;61.55
74811;DHT22;63340;48.404;-4.506;2022-12-10T15:48:09;9.18;62.09
74811;DHT22;63340;48.404;-4.506;2022-12-10T15:50:36;9.15;62.35
74811;DHT22;63340;48.404;-4.506;2022-12-10T15:53:01;9.16;62.89
74811;DHT22;63340;48.404;-4.506;2022-12-10T15:55:27;9.12;63.47
74811;DHT22;63340;48.404;-4.506;2022-12-10T15:57:52;9.14;63.32
74811;DHT22;63340;48.404;-4.506;2022-12-10T16:00:24;9.16;63.55
74811;DHT22;63340;48.404;-4.506;2022-12-10T16:02:54;9.21;63.53
74811;DHT22;63340;48.404;-4.506;2022-12-10T16:05:27;9.15;63.25
74811;DHT22;63340;48.404;-4.506;2022-12-10T16:08:28;9.12;63.87
74811;DHT22;63340;48.404;-4.506;2022-12-10T16:10:57;9.05;63.70
74811;DHT22;63340;48.404;-4.506;2022-12-10T16:13:28;8.95;64.47
74811;DHT22;63340;48.404;-4.506;2022-12-10T16:15:58;8.81;64.99
74811;DHT22;63340;48.404;-4.506;2022-12-10T16:18:25;8.71;65.46
74811;DHT22;63340;48.404;-4.506;2022-12-10T16:20:51;8.63;65.46
74811;DHT22;63340;48.404;-4.506;2022-12-10T16:23:17;8.49;66.12
74811;DHT22;63340;48.404;-4.506;2022-12-10T16:25:43;8.42;65.57
74811;DHT22;63340;48.404;-4.506;2022-12-10T16:28:18;8.44;65.61
74811;DHT22;63340;48.404;-4.506;2022-12-10T16:30:52;8.54;66.26
74811;DHT22;63340;48.404;-4.506;2022-12-10T16:33:19;8.64;65.96
74811;DHT22;63340;48.404;-4.506;2022-12-10T16:35:46;8.75;65.50
74811;DHT22;63340;48.404;-4.506;2022-12-10T16:38:11;8.85;65.16
74811;DHT22;63340;48.404;-4.506;2022-12-10T16:40:38;8.80;65.24
74811;DHT22;63340;48.404;-4.506;2022-12-10T16:43:04;8.77;65.15
74811;DHT22;63340;48.404;-4.506;2022-12-10T16:45:34;8.78;65.40
74811;DHT22;63340;48.404;-4.506;2022-12-10T16:48:00;8.81;65.26
74811;DHT22;63340;48.404;-4.506;2022-12-10T16:50:26;8.84;65.06
74811;DHT22;63340;48.404;-4.506;2022-12-10T16:52:54;8.87;64.64
74811;DHT22;63340;48.404;-4.506;2022-12-10T16:55:22;8.88;64.58
74811;DHT22;63340;48.404;-4.506;2022-12-10T16:57:48;8.87;64.07
74811;DHT22;63340;48.404;-4.506;2022-12-10T17:00:15;8.82;63.94
74811;DHT22;63340;48.404;-4.506;2022-12-10T17:02:42;8.74;64.36
74811;DHT22;63340;48.404;-4.506;2022-12-10T17:05:29;8.75;64.08
74811;DHT22;63340;48.404;-4.506;2022-12-10T17:07:56;8.74;64.05
74811;DHT22;63340;48.404;-4.506;2022-12-10T17:10:21;8.71;64.00
74811;DHT22;63340;48.404;-4.506;2022-12-10T17:13:10;8.71;64.02
74811;DHT22;63340;48.404;-4.506;2022-12-10T17:15:36;8.70;64.36
74811;DHT22;63340;48.404;-4.506;2022-12-10T17:18:02;8.70;64.22
74811;DHT22;63340;48.404;-4.506;2022-12-10T17:20:28;8.74;64.45
74811;DHT22;63340;48.404;-4.506;2022-12-10T17:22:54;8.77;64.25
74811;DHT22;63340;48.404;-4.506;2022-12-10T17:25:20;8.82;63.86
74811;DHT22;63340;48.404;-4.506;2022-12-10T17:27:45;8.74;63.94
74811;DHT22;63340;48.404;-4.506;2022-12-10T17:30:14;8.63;64.51
74811;DHT22;63340;48.404;-4.506;2022-12-10T17:32:41;8.60;64.52
74811;DHT22;63340;48.404;-4.506;2022-12-10T17:35:06;8.56;64.36